sensor_id;sensor_type;location;lat;lon;timestamp;temperature;humidity
14755;DHT22;7469;50.906;6.952;2022-11-20T00:01:04;4.00;99.90
14755;DHT22;7469;50.906;6.952;2022-11-20T00:03:32;4.00;99.90
14755;DHT22;7469;50.906;6.952;2022-11-20T00:06:02;4.00;99.90
14755;DHT22;7469;50.906;6.952;2022-11-20T00:08:31;4.00;99.90
14755;DHT22;7469;50.906;6.952;2022-11-20T00:11:03;4.00;99.90
14755;DHT22;7469;50.906;6.952;2022-11-20T00:13:31;4.00;99.90
14755;DHT22;7469;50.906;6.952;2022-11-20T00:16:01;4.00;99.90
14755;DHT22;7469;50.906;6.952;2022-11-20T00:18:30;3.90;99.90
14755;DHT22;7469;50.906;6.952;2022-11-20T00:21:05;4.00;99.90
14755;DHT22;7469;50.906;6.952;2022-11-20T00:23:33;4.00;99.90
14755;DHT22;7469;50.906;6.952;2022-11-20T00:26:02;4.00;99.90
14755;DHT22;7469;50.906;6.952;2022-11-20T00:28:31;4.00;99.90
14755;DHT22;7469;50.906;6.952;2022-11-20T00:31:03;4.00;99.90
14755;DHT22;7469;50.906;6.952;2022-11-20T00:33:31;4.10;99.90
14755;DHT22;7469;50.906;6.952;2022-11-20T00:36:00;4.10;99.90
14755;DHT22;7469;50.906;6.952;2022-11-20T00:38:30;4.10;99.90
14755;DHT22;7469;50.906;6.952;2022-11-20T00:41:00;4.10;99.90
14755;DHT22;7469;50.906;6.952;2022-11-20T00:43:28;4.10;99.90
14755;DHT22;7469;50.906;6.952;2022-11-20T00:45:57;4.10;99.90
14755;DHT22;7469;50.906;6.952;2022-11-20T00:48:26;4.10;99.90
14755;DHT22;7469;50.906;6.952;2022-11-20T00:50:54;4.10;99.90
14755;DHT22;7469;50.906;6.952;2022-11-20T00:53:22;4.10;99.90
14755;DHT22;7469;50.906;6.952;2022-11-20T00:55:56;4.10;99.90
14755;DHT22;7469;50.906;6.952;2022-11-20T00:58:30;4.00;99.90
14755;DHT22;7469;50.906;6.952;2022-11-20T01:01:01;4.00;99.90
14755;DHT22;7469;50.906;6.952;2022-11-20T01:03:31;4.00;99.90
14755;DHT22;7469;50.906;6.952;2022-11-20T01:06:03;4.00;99.90
14755;DHT22;7469;50.906;6.952;2022-11-20T01:08:32;4.00;99.90
14755;DHT22;7469;50.906;6.952;2022-11-20T01:11:03;4.00;99.90
14755;DHT22;7469;50.906;6.952;2022-11-20T01:13:32;4.00;99.90
14755;DHT22;7469;50.906;6.952;2022-11-20T01:16:07;4.00;99.90
14755;DHT22;7469;50.906;6.952;2022-11-20T01:18:35;4.00;99.90
14755;DHT22;7469;50.906;6.952;2022-11-20T01:21:05;4.00;99.90
14755;DHT22;7469;50.906;6.952;2022-11-20T01:23:34;4.00;99.90
14755;DHT22;7469;50.906;6.952;2022-11-20T01:26:06;4.00;99.90
14755;DHT22;7469;50.906;6.952;2022-11-20T01:28:34;4.00;99.90
14755;DHT22;7469;50.906;6.952;2022-11-20T01:31:11;4.00;99.90
14755;DHT22;7469;50.906;6.952;2022-11-20T01:33:39;4.00;99.90
14755;DHT22;7469;50.906;6.952;2022-11-20T01:36:08;3.90;99.90
14755;DHT22;7469;50.906;6.952;2022-11-20T01:38:36;4.00;99.90
14755;DHT22;7469;50.906;6.952;2022-11-20T01:41:06;4.00;99.90
14755;DHT22;7469;50.906;6.952;2022-11-20T01:43:35;4.00;99.90
14755;DHT22;7469;50.906;6.952;2022-11-20T01:46:14;4.00;99.90
14755;DHT22;7469;50.906;6.952;2022-11-20T01:48:47;3.90;99.90
14755;DHT22;7469;50.906;6.952;2022-11-20T01:51:22;3.90;99.90
14755;DHT22;7469;50.906;6.952;2022-11-20T01:53:53;4.00;99.90
14755;DHT22;7469;50.906;6.952;2022-11-20T01:56:25;4.00;99.90
14755;DHT22;7469;50.906;6.952;2022-11-20T01:58:57;3.90;99.90
14755;DHT22;7469;50.906;6.952;2022-11-20T02:01:25;4.00;99.90
14755;DHT22;7469;50.906;6.952;2022-11-20T02:03:54;3.90;99.90
14755;DHT22;7469;50.906;6.952;2022-11-20T02:06:25;3.90;99.90
14755;DHT22;7469;50.906;6.952;2022-11-20T02:08:54;3.90;99.90
14755;DHT22;7469;50.906;6.952;2022-11-20T02:11:22;3.90;99.90
14755;DHT22;7469;50.906;6.952;2022-11-20T02:13:51;3.80;99.90
14755;DHT22;7469;50.906;6.952;2022-11-20T02:16:22;3.80;99.90
14755;DHT22;7469;50.906;6.952;2022-11-20T02:18:51;3.80;99.90
14755;DHT22;7469;50.906;6.952;2022-11-20T02:21:26;3.70;99.90
14755;DHT22;7469;50.906;6.952;2022-11-20T02:24:03;3.70;99.90
14755;DHT22;7469;50.906;6.952;2022-11-20T02:26:33;3.70;99.90
14755;DHT22;7469;50.906;6.952;2022-11-20T02:29:03;3.70;99.90
14755;DHT22;7469;50.906;6.952;2022-11-20T02:31:37;3.70;99.90
14755;DHT22;7469;50.906;6.952;2022-11-20T02:34:06;3.70;99.90
14755;DHT22;7469;50.906;6.952;2022-11-20T02:36:35;3.70;99.90
14755;DHT22;7469;50.906;6.952;2022-11-20T02:39:05;3.70;99.90
14755;DHT22;7469;50.906;6.952;2022-11-20T02:41:35;3.60;99.90
14755;DHT22;7469;50.906;6.952;2022-11-20T02:44:04;3.60;99.90
14755;DHT22;7469;50.906;6.952;2022-11-20T02:46:33;3.60;99.90
14755;DHT22;7469;50.906;6.952;2022-11-20T02:49:02;3.60;99.90
14755;DHT22;7469;50.906;6.952;2022-11-20T02:51:30;3.60;99.90
14755;DHT22;7469;50.906;6.952;2022-11-20T02:53:58;3.50;99.90
14755;DHT22;7469;50.906;6.952;2022-11-20T02:56:27;3.50;99.90
14755;DHT22;7469;50.906;6.952;2022-11-20T02:58:55;3.50;99.90
14755;DHT22;7469;50.906;6.952;2022-11-20T03:01:23;3.40;99.90
14755;DHT22;7469;50.906;6.952;2022-11-20T03:03:51;3.40;99.90
14755;DHT22;7469;50.906;6.952;2022-11-20T03:06:21;3.40;99.90
14755;DHT22;7469;50.906;6.952;2022-11-20T03:08:49;3.50;99.90
14755;DHT22;7469;50.906;6.952;2022-11-20T03:11:17;3.50;99.90
14755;DHT22;7469;50.906;6.952;2022-11-20T03:13:46;3.50;99.90
14755;DHT22;7469;50.906;6.952;2022-11-20T03:16:16;3.50;99.90
14755;DHT22;7469;50.906;6.952;2022-11-20T03:18:45;3.50;99.90
14755;DHT22;7469;50.906;6.952;2022-11-20T03:21:14;3.50;99.90
14755;DHT22;7469;50.906;6.952;2022-11-20T03:23:42;3.50;99.90
14755;DHT22;7469;50.906;6.952;2022-11-20T03:26:13;3.50;99.90
14755;DHT22;7469;50.906;6.952;2022-11-20T03:28:42;3.50;99.90
14755;DHT22;7469;50.906;6.952;2022-11-20T03:31:16;3.50;99.90
14755;DHT22;7469;50.906;6.952;2022-11-20T03:33:44;3.50;99.90
14755;DHT22;7469;50.906;6.952;2022-11-20T03:36:14;3.50;99.90
14755;DHT22;7469;50.906;6.952;2022-11-20T03:38:42;3.50;99.90
14755;DHT22;7469;50.906;6.952;2022-11-20T03:41:11;3.50;99.90
14755;DHT22;7469;50.906;6.952;2022-11-20T03:43:40;3.50;99.90
14755;DHT22;7469;50.906;6.952;2022-11-20T03:46:08;3.50;99.90
14755;DHT22;7469;50.906;6.952;2022-11-20T03:48:37;3.50;99.90
14755;DHT22;7469;50.906;6.952;2022-11-20T03:51:10;3.50;99.90
14755;DHT22;7469;50.906;6.952;2022-11-20T03:53:38;3.50;99.90
14755;DHT22;7469;50.906;6.952;2022-11-20T03:56:07;3.60;99.90
14755;DHT22;7469;50.906;6.952;2022-11-20T03:58:36;3.60;99.90
14755;DHT22;7469;50.906;6.952;2022-11-20T04:01:07;3.50;99.90
14755;DHT22;7469;50.906;6.952;2022-11-20T04:03:38;3.50;99.90
14755;DHT22;7469;50.906;6.952;2022-11-20T04:06:08;3.50;99.90
14755;DHT22;7469;50.906;6.952;2022-11-20T04:08:37;3.50;99.90
14755;DHT22;7469;50.906;6.952;2022-11-20T04:11:09;3.60;99.90
14755;DHT22;7469;50.906;6.952;2022-11-20T04:13:38;3.60;99.90
14755;DHT22;7469;50.906;6.952;2022-11-20T04:16:07;3.60;99.90
14755;DHT22;7469;50.906;6.952;2022-11-20T04:18:36;3.60;99.90
14755;DHT22;7469;50.906;6.952;2022-11-20T04:21:05;3.60;99.90
14755;DHT22;7469;50.906;6.952;2022-11-20T04:23:33;3.60;99.90
14755;DHT22;7469;50.906;6.952;2022-11-20T04:26:05;3.60;99.90
14755;DHT22;7469;50.906;6.952;2022-11-20T04:28:33;3.60;99.90
14755;DHT22;7469;50.906;6.952;2022-11-20T04:31:03;3.60;99.90
14755;DHT22;7469;50.906;6.952;2022-11-20T04:33:32;3.60;99.90
14755;DHT22;7469;50.906;6.952;2022-11-20T04:36:03;3.60;99.90
14755;DHT22;7469;50.906;6.952;2022-11-20T04:38:32;3.50;99.90
14755;DHT22;7469;50.906;6.952;2022-11-20T04:41:02;3.50;99.90
14755;DHT22;7469;50.906;6.952;2022-11-20T04:43:31;3.50;99.90
14755;DHT22;7469;50.906;6.952;2022-11-20T04:46:00;3.50;99.90
14755;DHT22;7469;50.906;6.952;2022-11-20T04:48:29;3.50;99.90
14755;DHT22;7469;50.906;6.952;2022-11-20T04:50:57;3.50;99.90
14755;DHT22;7469;50.906;6.952;2022-11-20T04:53:26;3.50;99.90
14755;DHT22;7469;50.906;6.952;2022-11-20T04:55:59;3.50;99.90
14755;DHT22;7469;50.906;6.952;2022-11-20T04:58:27;3.50;99.90
14755;DHT22;7469;50.906;6.952;2022-11-20T05:01:01;3.50;99.90
14755;DHT22;7469;50.906;6.952;2022-11-20T05:03:30;3.50;99.90
14755;DHT22;7469;50.906;6.952;2022-11-20T05:06:00;3.60;99.90
14755;DHT22;7469;50.906;6.952;2022-11-20T05:08:30;3.60;99.90
14755;DHT22;7469;50.906;6.952;2022-11-20T05:11:02;3.60;99.90
14755;DHT22;7469;50.906;6.952;2022-11-20T05:13:31;3.60;99.90
14755;DHT22;7469;50.906;6.952;2022-11-20T05:16:02;3.60;99.90
14755;DHT22;7469;50.906;6.952;2022-11-20T05:18:30;3.60;99.90
14755;DHT22;7469;50.906;6.952;2022-11-20T05:20:58;3.70;99.90
14755;DHT22;7469;50.906;6.952;2022-11-20T05:23:27;3.70;99.90
14755;DHT22;7469;50.906;6.952;2022-11-20T05:25:57;3.70;99.90
14755;DHT22;7469;50.906;6.952;2022-11-20T05:28:26;3.70;99.90
14755;DHT22;7469;50.906;6.952;2022-11-20T05:30:54;3.80;99.90
14755;DHT22;7469;50.906;6.952;2022-11-20T05:33:22;3.90;99.90
14755;DHT22;7469;50.906;6.952;2022-11-20T05:35:50;3.80;99.90
14755;DHT22;7469;50.906;6.952;2022-11-20T05:38:18;3.80;99.90
14755;DHT22;7469;50.906;6.952;2022-11-20T05:40:46;3.80;99.90
14755;DHT22;7469;50.906;6.952;2022-11-20T05:43:15;3.80;99.90
14755;DHT22;7469;50.906;6.952;2022-11-20T05:45:50;3.90;99.90
14755;DHT22;7469;50.906;6.952;2022-11-20T05:48:18;3.90;99.90
14755;DHT22;7469;50.906;6.952;2022-11-20T05:50:46;3.90;99.90
14755;DHT22;7469;50.906;6.952;2022-11-20T05:53:14;3.90;99.90
14755;DHT22;7469;50.906;6.952;2022-11-20T05:55:42;3.90;99.90
14755;DHT22;7469;50.906;6.952;2022-11-20T05:58:11;3.90;99.90
14755;DHT22;7469;50.906;6.952;2022-11-20T06:00:40;3.90;99.90
14755;DHT22;7469;50.906;6.952;2022-11-20T06:03:08;4.00;99.90
14755;DHT22;7469;50.906;6.952;2022-11-20T06:05:36;4.00;99.90
14755;DHT22;7469;50.906;6.952;2022-11-20T06:08:04;4.00;99.90
14755;DHT22;7469;50.906;6.952;2022-11-20T06:10:32;4.00;99.90
14755;DHT22;7469;50.906;6.952;2022-11-20T06:13:00;4.00;99.90
14755;DHT22;7469;50.906;6.952;2022-11-20T06:15:28;4.00;99.90
14755;DHT22;7469;50.906;6.952;2022-11-20T06:17:57;4.00;99.90
14755;DHT22;7469;50.906;6.952;2022-11-20T06:20:25;4.10;99.90
14755;DHT22;7469;50.906;6.952;2022-11-20T06:22:53;4.10;99.90
14755;DHT22;7469;50.906;6.952;2022-11-20T06:25:21;4.10;99.90
14755;DHT22;7469;50.906;6.952;2022-11-20T06:27:49;4.10;99.90
14755;DHT22;7469;50.906;6.952;2022-11-20T06:30:17;4.10;99.90
14755;DHT22;7469;50.906;6.952;2022-11-20T06:32:45;4.10;99.90
14755;DHT22;7469;50.906;6.952;2022-11-20T06:35:14;4.10;99.90
14755;DHT22;7469;50.906;6.952;2022-11-20T06:37:42;4.10;99.90
14755;DHT22;7469;50.906;6.952;2022-11-20T06:40:11;4.10;99.90
14755;DHT22;7469;50.906;6.952;2022-11-20T06:42:39;4.10;99.90
14755;DHT22;7469;50.906;6.952;2022-11-20T06:45:08;4.10;99.90
14755;DHT22;7469;50.906;6.952;2022-11-20T06:47:36;4.10;99.90
14755;DHT22;7469;50.906;6.952;2022-11-20T06:50:05;4.20;99.90
14755;DHT22;7469;50.906;6.952;2022-11-20T06:52:34;4.10;99.90
14755;DHT22;7469;50.906;6.952;2022-11-20T06:55:09;4.20;99.90
14755;DHT22;7469;50.906;6.952;2022-11-20T06:57:37;4.20;99.90
14755;DHT22;7469;50.906;6.952;2022-11-20T07:00:06;4.10;99.90
14755;DHT22;7469;50.906;6.952;2022-11-20T07:02:34;4.20;99.90
14755;DHT22;7469;50.906;6.952;2022-11-20T07:05:02;4.10;99.90
14755;DHT22;7469;50.906;6.952;2022-11-20T07:07:30;4.10;99.90
14755;DHT22;7469;50.906;6.952;2022-11-20T07:09:59;4.20;99.90
14755;DHT22;7469;50.906;6.952;2022-11-20T07:12:27;4.10;99.90
14755;DHT22;7469;50.906;6.952;2022-11-20T07:14:55;4.20;99.90
14755;DHT22;7469;50.906;6.952;2022-11-20T07:17:23;4.10;99.90
14755;DHT22;7469;50.906;6.952;2022-11-20T07:19:51;4.10;99.90
14755;DHT22;7469;50.906;6.952;2022-11-20T07:22:19;4.10;99.90
14755;DHT22;7469;50.906;6.952;2022-11-20T07:24:48;4.20;99.90
14755;DHT22;7469;50.906;6.952;2022-11-20T07:27:17;4.10;99.90
14755;DHT22;7469;50.906;6.952;2022-11-20T07:29:45;4.20;99.90
14755;DHT22;7469;50.906;6.952;2022-11-20T07:32:13;4.20;99.90
14755;DHT22;7469;50.906;6.952;2022-11-20T07:34:41;4.20;99.90
14755;DHT22;7469;50.906;6.952;2022-11-20T07:37:09;4.20;99.90
14755;DHT22;7469;50.906;6.952;2022-11-20T07:39:37;4.20;99.90
14755;DHT22;7469;50.906;6.952;2022-11-20T07:42:06;4.10;99.90
14755;DHT22;7469;50.906;6.952;2022-11-20T07:44:35;4.20;99.90
14755;DHT22;7469;50.906;6.952;2022-11-20T07:47:03;4.20;99.90
14755;DHT22;7469;50.906;6.952;2022-11-20T07:49:31;4.20;99.90
14755;DHT22;7469;50.906;6.952;2022-11-20T07:51:59;4.20;99.90
14755;DHT22;7469;50.906;6.952;2022-11-20T07:54:31;4.20;99.90
14755;DHT22;7469;50.906;6.952;2022-11-20T07:56:59;4.20;99.90
14755;DHT22;7469;50.906;6.952;2022-11-20T07:59:26;4.20;99.90
14755;DHT22;7469;50.906;6.952;2022-11-20T08:01:56;4.20;99.90
14755;DHT22;7469;50.906;6.952;2022-11-20T08:04:24;4.20;99.90
14755;DHT22;7469;50.906;6.952;2022-11-20T08:06:52;4.20;99.90
14755;DHT22;7469;50.906;6.952;2022-11-20T08:09:20;4.30;99.90
14755;DHT22;7469;50.906;6.952;2022-11-20T08:11:48;4.30;99.90
14755;DHT22;7469;50.906;6.952;2022-11-20T08:14:34;4.30;99.90
14755;DHT22;7469;50.906;6.952;2022-11-20T08:17:03;4.30;99.90
14755;DHT22;7469;50.906;6.952;2022-11-20T08:19:31;4.30;99.90
14755;DHT22;7469;50.906;6.952;2022-11-20T08:21:59;4.30;99.90
14755;DHT22;7469;50.906;6.952;2022-11-20T08:24:27;4.40;99.90
14755;DHT22;7469;50.906;6.952;2022-11-20T08:26:57;4.40;99.90
14755;DHT22;7469;50.906;6.952;2022-11-20T08:29:26;4.50;99.90
14755;DHT22;7469;50.906;6.952;2022-11-20T08:31:54;4.50;99.90
14755;DHT22;7469;50.906;6.952;2022-11-20T08:34:23;4.50;99.90
14755;DHT22;7469;50.906;6.952;2022-11-20T08:36:51;4.60;99.90
14755;DHT22;7469;50.906;6.952;2022-11-20T08:39:19;4.60;99.90
14755;DHT22;7469;50.906;6.952;2022-11-20T08:41:47;4.60;99.90
14755;DHT22;7469;50.906;6.952;2022-11-20T08:44:15;4.60;99.90
14755;DHT22;7469;50.906;6.952;2022-11-20T08:46:44;4.70;99.90
14755;DHT22;7469;50.906;6.952;2022-11-20T08:49:13;4.70;99.90
14755;DHT22;7469;50.906;6.952;2022-11-20T08:51:43;4.70;99.90
14755;DHT22;7469;50.906;6.952;2022-11-20T08:54:11;4.70;99.90
14755;DHT22;7469;50.906;6.952;2022-11-20T08:56:40;4.80;99.90
14755;DHT22;7469;50.906;6.952;2022-11-20T08:59:08;4.90;99.90
14755;DHT22;7469;50.906;6.952;2022-11-20T09:01:55;5.00;99.90
14755;DHT22;7469;50.906;6.952;2022-11-20T09:04:24;5.10;99.90
14755;DHT22;7469;50.906;6.952;2022-11-20T09:06:53;5.10;99.90
14755;DHT22;7469;50.906;6.952;2022-11-20T09:09:21;5.10;99.90
14755;DHT22;7469;50.906;6.952;2022-11-20T09:11:49;5.20;99.90
14755;DHT22;7469;50.906;6.952;2022-11-20T09:14:17;5.30;99.90
14755;DHT22;7469;50.906;6.952;2022-11-20T09:16:45;5.40;99.90
14755;DHT22;7469;50.906;6.952;2022-11-20T09:19:13;5.50;99.90
14755;DHT22;7469;50.906;6.952;2022-11-20T09:22:02;5.50;99.90
14755;DHT22;7469;50.906;6.952;2022-11-20T09:24:30;5.60;99.90
14755;DHT22;7469;50.906;6.952;2022-11-20T09:27:01;5.70;99.90
14755;DHT22;7469;50.906;6.952;2022-11-20T09:29:29;5.70;99.90
14755;DHT22;7469;50.906;6.952;2022-11-20T09:31:57;5.90;99.90
14755;DHT22;7469;50.906;6.952;2022-11-20T09:34:25;6.10;99.90
14755;DHT22;7469;50.906;6.952;2022-11-20T09:36:53;6.30;99.90
14755;DHT22;7469;50.906;6.952;2022-11-20T09:39:22;6.50;99.90
14755;DHT22;7469;50.906;6.952;2022-11-20T09:42:10;6.60;99.90
14755;DHT22;7469;50.906;6.952;2022-11-20T09:44:52;6.70;99.90
14755;DHT22;7469;50.906;6.952;2022-11-20T09:47:30;6.70;99.90
14755;DHT22;7469;50.906;6.952;2022-11-20T09:50:12;6.70;99.90
14755;DHT22;7469;50.906;6.952;2022-11-20T09:52:57;6.70;99.90
14755;DHT22;7469;50.906;6.952;2022-11-20T09:55:29;6.60;99.90
14755;DHT22;7469;50.906;6.952;2022-11-20T09:57:59;6.40;99.90
14755;DHT22;7469;50.906;6.952;2022-11-20T10:00:28;6.30;99.90
14755;DHT22;7469;50.906;6.952;2022-11-20T10:03:01;6.20;99.90
14755;DHT22;7469;50.906;6.952;2022-11-20T10:05:33;6.10;99.90
14755;DHT22;7469;50.906;6.952;2022-11-20T10:08:11;6.10;99.90
14755;DHT22;7469;50.906;6.952;2022-11-20T10:10:45;6.10;99.90
14755;DHT22;7469;50.906;6.952;2022-11-20T10:13:30;6.00;99.90
14755;DHT22;7469;50.906;6.952;2022-11-20T10:16:18;5.90;99.90
14755;DHT22;7469;50.906;6.952;2022-11-20T10:19:01;5.80;99.90
14755;DHT22;7469;50.906;6.952;2022-11-20T10:21:41;5.80;99.90
14755;DHT22;7469;50.906;6.952;2022-11-20T10:24:30;5.70;99.90
14755;DHT22;7469;50.906;6.952;2022-11-20T10:27:14;5.70;99.90
14755;DHT22;7469;50.906;6.952;2022-11-20T10:29:46;5.70;99.90
14755;DHT22;7469;50.906;6.952;2022-11-20T10:32:17;5.80;99.90
14755;DHT22;7469;50.906;6.952;2022-11-20T10:34:50;5.80;99.90
14755;DHT22;7469;50.906;6.952;2022-11-20T10:37:21;6.00;99.90
14755;DHT22;7469;50.906;6.952;2022-11-20T10:39:54;6.10;99.90
14755;DHT22;7469;50.906;6.952;2022-11-20T10:42:30;6.20;99.90
14755;DHT22;7469;50.906;6.952;2022-11-20T10:45:09;6.20;99.90
14755;DHT22;7469;50.906;6.952;2022-11-20T10:47:41;6.30;99.90
14755;DHT22;7469;50.906;6.952;2022-11-20T10:50:11;6.40;99.90
14755;DHT22;7469;50.906;6.952;2022-11-20T10:52:53;6.30;99.90
14755;DHT22;7469;50.906;6.952;2022-11-20T10:55:30;6.20;99.90
14755;DHT22;7469;50.906;6.952;2022-11-20T10:58:09;6.10;99.90
14755;DHT22;7469;50.906;6.952;2022-11-20T11:00:38;6.00;99.90
14755;DHT22;7469;50.906;6.952;2022-11-20T11:03:20;6.00;99.90
14755;DHT22;7469;50.906;6.952;2022-11-20T11:05:51;6.00;99.90
14755;DHT22;7469;50.906;6.952;2022-11-20T11:08:21;5.90;99.90
14755;DHT22;7469;50.906;6.952;2022-11-20T11:10:52;5.90;99.90
14755;DHT22;7469;50.906;6.952;2022-11-20T11:13:24;5.80;99.90
14755;DHT22;7469;50.906;6.952;2022-11-20T11:15:53;5.80;99.90
14755;DHT22;7469;50.906;6.952;2022-11-20T11:18:25;5.80;99.90
14755;DHT22;7469;50.906;6.952;2022-11-20T11:20:55;5.80;99.90
14755;DHT22;7469;50.906;6.952;2022-11-20T11:23:31;5.80;99.90
14755;DHT22;7469;50.906;6.952;2022-11-20T11:26:01;5.90;99.90
14755;DHT22;7469;50.906;6.952;2022-11-20T11:28:31;6.00;99.90
14755;DHT22;7469;50.906;6.952;2022-11-20T11:30:59;6.00;99.90
14755;DHT22;7469;50.906;6.952;2022-11-20T11:33:29;6.00;99.90
14755;DHT22;7469;50.906;6.952;2022-11-20T11:35:59;6.10;99.90
14755;DHT22;7469;50.906;6.952;2022-11-20T11:38:30;6.20;99.90
14755;DHT22;7469;50.906;6.952;2022-11-20T11:40:59;6.20;99.90
14755;DHT22;7469;50.906;6.952;2022-11-20T11:43:31;6.30;99.90
14755;DHT22;7469;50.906;6.952;2022-11-20T11:46:27;6.30;99.90
14755;DHT22;7469;50.906;6.952;2022-11-20T11:48:58;6.30;99.90
14755;DHT22;7469;50.906;6.952;2022-11-20T11:51:31;6.30;99.90
14755;DHT22;7469;50.906;6.952;2022-11-20T11:54:01;6.30;99.90
14755;DHT22;7469;50.906;6.952;2022-11-20T11:56:32;6.20;99.90
14755;DHT22;7469;50.906;6.952;2022-11-20T11:59:09;6.20;99.90
14755;DHT22;7469;50.906;6.952;2022-11-20T12:01:44;6.10;99.90
14755;DHT22;7469;50.906;6.952;2022-11-20T12:04:21;6.00;99.90
14755;DHT22;7469;50.906;6.952;2022-11-20T12:06:58;6.00;99.90
14755;DHT22;7469;50.906;6.952;2022-11-20T12:09:51;5.80;99.90
14755;DHT22;7469;50.906;6.952;2022-11-20T12:12:24;5.90;99.90
14755;DHT22;7469;50.906;6.952;2022-11-20T12:14:55;5.90;99.90
14755;DHT22;7469;50.906;6.952;2022-11-20T12:17:24;5.80;99.90
14755;DHT22;7469;50.906;6.952;2022-11-20T12:19:52;5.80;99.90
14755;DHT22;7469;50.906;6.952;2022-11-20T12:22:27;5.80;99.90
14755;DHT22;7469;50.906;6.952;2022-11-20T12:25:02;5.80;99.90
14755;DHT22;7469;50.906;6.952;2022-11-20T12:27:53;5.80;99.90
14755;DHT22;7469;50.906;6.952;2022-11-20T12:30:29;5.80;99.90
14755;DHT22;7469;50.906;6.952;2022-11-20T12:33:11;5.80;99.90
14755;DHT22;7469;50.906;6.952;2022-11-20T12:35:59;5.80;99.90
14755;DHT22;7469;50.906;6.952;2022-11-20T12:41:36;5.90;99.90
14755;DHT22;7469;50.906;6.952;2022-11-20T12:44:51;6.00;99.90
14755;DHT22;7469;50.906;6.952;2022-11-20T12:47:50;6.10;99.90
14755;DHT22;7469;50.906;6.952;2022-11-20T12:50:27;6.10;99.90
14755;DHT22;7469;50.906;6.952;2022-11-20T12:53:03;6.20;99.90
14755;DHT22;7469;50.906;6.952;2022-11-20T12:55:47;6.30;99.90
14755;DHT22;7469;50.906;6.952;2022-11-20T12:58:22;6.40;99.90
14755;DHT22;7469;50.906;6.952;2022-11-20T13:00:56;6.50;99.90
14755;DHT22;7469;50.906;6.952;2022-11-20T13:03:41;6.70;99.90
14755;DHT22;7469;50.906;6.952;2022-11-20T13:06:13;6.60;99.90
14755;DHT22;7469;50.906;6.952;2022-11-20T13:08:48;6.60;99.90
14755;DHT22;7469;50.906;6.952;2022-11-20T13:11:20;6.60;99.90
14755;DHT22;7469;50.906;6.952;2022-11-20T13:14:14;6.50;99.90
14755;DHT22;7469;50.906;6.952;2022-11-20T13:16:50;6.50;99.90
14755;DHT22;7469;50.906;6.952;2022-11-20T13:19:20;6.50;99.90
14755;DHT22;7469;50.906;6.952;2022-11-20T13:21:49;6.50;99.90
14755;DHT22;7469;50.906;6.952;2022-11-20T13:24:23;6.60;99.90
14755;DHT22;7469;50.906;6.952;2022-11-20T13:27:18;6.50;99.90
14755;DHT22;7469;50.906;6.952;2022-11-20T13:29:59;6.60;99.90
14755;DHT22;7469;50.906;6.952;2022-11-20T13:32:28;6.60;99.90
14755;DHT22;7469;50.906;6.952;2022-11-20T13:35:01;6.60;99.90
14755;DHT22;7469;50.906;6.952;2022-11-20T13:37:31;6.60;99.90
14755;DHT22;7469;50.906;6.952;2022-11-20T13:40:13;6.70;99.90
14755;DHT22;7469;50.906;6.952;2022-11-20T13:42:45;6.70;99.90
14755;DHT22;7469;50.906;6.952;2022-11-20T13:45:22;6.70;99.90
14755;DHT22;7469;50.906;6.952;2022-11-20T13:47:51;6.70;99.90
14755;DHT22;7469;50.906;6.952;2022-11-20T13:50:25;6.50;99.90
14755;DHT22;7469;50.906;6.952;2022-11-20T13:53:05;6.60;99.90
14755;DHT22;7469;50.906;6.952;2022-11-20T13:55:40;6.60;99.90
14755;DHT22;7469;50.906;6.952;2022-11-20T13:58:27;6.50;99.90
14755;DHT22;7469;50.906;6.952;2022-11-20T14:01:07;6.50;99.90
14755;DHT22;7469;50.906;6.952;2022-11-20T14:03:36;6.50;99.90
14755;DHT22;7469;50.906;6.952;2022-11-20T14:06:27;6.50;99.90
14755;DHT22;7469;50.906;6.952;2022-11-20T14:08:56;6.50;99.90
14755;DHT22;7469;50.906;6.952;2022-11-20T14:11:26;6.50;99.90
14755;DHT22;7469;50.906;6.952;2022-11-20T14:13:56;6.40;99.90
14755;DHT22;7469;50.906;6.952;2022-11-20T14:16:27;6.40;99.90
14755;DHT22;7469;50.906;6.952;2022-11-20T14:18:56;6.40;99.90
14755;DHT22;7469;50.906;6.952;2022-11-20T14:21:28;6.40;99.90
14755;DHT22;7469;50.906;6.952;2022-11-20T14:24:06;6.30;99.90
14755;DHT22;7469;50.906;6.952;2022-11-20T14:26:34;6.30;99.90
14755;DHT22;7469;50.906;6.952;2022-11-20T14:29:03;6.30;99.90
14755;DHT22;7469;50.906;6.952;2022-11-20T14:31:32;6.30;99.90
14755;DHT22;7469;50.906;6.952;2022-11-20T14:34:02;6.30;99.90
14755;DHT22;7469;50.906;6.952;2022-11-20T14:36:31;6.30;99.90
14755;DHT22;7469;50.906;6.952;2022-11-20T14:38:59;6.30;99.90
14755;DHT22;7469;50.906;6.952;2022-11-20T14:41:27;6.30;99.90
14755;DHT22;7469;50.906;6.952;2022-11-20T14:43:59;6.30;99.90
14755;DHT22;7469;50.906;6.952;2022-11-20T14:46:30;6.30;99.90
14755;DHT22;7469;50.906;6.952;2022-11-20T14:49:01;6.30;99.90
14755;DHT22;7469;50.906;6.952;2022-11-20T14:51:33;6.40;99.90
14755;DHT22;7469;50.906;6.952;2022-11-20T14:54:13;6.40;99.90
14755;DHT22;7469;50.906;6.952;2022-11-20T14:56:42;6.40;99.90
14755;DHT22;7469;50.906;6.952;2022-11-20T14:59:23;6.30;99.90
14755;DHT22;7469;50.906;6.952;2022-11-20T15:01:56;6.30;99.90
14755;DHT22;7469;50.906;6.952;2022-11-20T15:04:25;6.30;99.90
14755;DHT22;7469;50.906;6.952;2022-11-20T15:06:57;6.30;99.90
14755;DHT22;7469;50.906;6.952;2022-11-20T15:09:25;6.30;99.90
14755;DHT22;7469;50.906;6.952;2022-11-20T15:11:55;6.30;99.90
14755;DHT22;7469;50.906;6.952;2022-11-20T15:14:24;6.40;99.90
14755;DHT22;7469;50.906;6.952;2022-11-20T15:16:52;6.30;99.90
14755;DHT22;7469;50.906;6.952;2022-11-20T15:19:21;6.40;99.90
14755;DHT22;7469;50.906;6.952;2022-11-20T15:21:50;6.40;99.90
14755;DHT22;7469;50.906;6.952;2022-11-20T15:24:20;6.30;99.90
14755;DHT22;7469;50.906;6.952;2022-11-20T15:26:48;6.40;99.90
14755;DHT22;7469;50.906;6.952;2022-11-20T15:29:16;6.40;99.90
14755;DHT22;7469;50.906;6.952;2022-11-20T15:31:45;6.40;99.90
14755;DHT22;7469;50.906;6.952;2022-11-20T15:34:14;6.40;99.90
14755;DHT22;7469;50.906;6.952;2022-11-20T15:36:43;6.40;99.90
14755;DHT22;7469;50.906;6.952;2022-11-20T15:39:11;6.40;99.90
14755;DHT22;7469;50.906;6.952;2022-11-20T15:41:40;6.40;99.90
14755;DHT22;7469;50.906;6.952;2022-11-20T15:44:08;6.30;99.90
14755;DHT22;7469;50.906;6.952;2022-11-20T15:46:38;6.40;99.90
14755;DHT22;7469;50.906;6.952;2022-11-20T15:49:11;6.40;99.90
14755;DHT22;7469;50.906;6.952;2022-11-20T15:51:41;6.40;99.90
14755;DHT22;7469;50.906;6.952;2022-11-20T15:54:12;6.40;99.90
14755;DHT22;7469;50.906;6.952;2022-11-20T15:56:41;6.40;99.90
14755;DHT22;7469;50.906;6.952;2022-11-20T15:59:09;6.40;99.90
14755;DHT22;7469;50.906;6.952;2022-11-20T16:01:37;6.40;99.90
14755;DHT22;7469;50.906;6.952;2022-11-20T16:04:09;6.40;99.90
14755;DHT22;7469;50.906;6.952;2022-11-20T16:06:38;6.40;99.90
14755;DHT22;7469;50.906;6.952;2022-11-20T16:09:05;6.50;99.90
14755;DHT22;7469;50.906;6.952;2022-11-20T16:11:34;6.50;99.90
14755;DHT22;7469;50.906;6.952;2022-11-20T16:14:05;6.50;99.90
14755;DHT22;7469;50.906;6.952;2022-11-20T16:16:51;6.50;99.90
14755;DHT22;7469;50.906;6.952;2022-11-20T16:19:19;6.50;99.90
14755;DHT22;7469;50.906;6.952;2022-11-20T16:21:47;6.60;99.90
14755;DHT22;7469;50.906;6.952;2022-11-20T16:24:15;6.60;99.90
14755;DHT22;7469;50.906;6.952;2022-11-20T16:26:43;6.60;99.90
14755;DHT22;7469;50.906;6.952;2022-11-20T16:29:13;6.60;99.90
14755;DHT22;7469;50.906;6.952;2022-11-20T16:31:41;6.60;99.90